Newent, United Kingdom
Current Conditions -  °F | °C
As of 1:20 PM on Tuesday 21 Oct 2014 (Local Time) from EGBJ Reporting Station
Few Clouds Few Clouds  
Wind Chill: 55°   Ceiling: Unl
Heat Index: 55°   Visibility: 6mi
Dew Point: 41°   Wind: 28mph
Humidity: 58%   Direction: 280°W
Pressure: 29.77"   Gusts: 40mph
Location:  51.93°N, 2.41°W
Report Text: EGBJ 211220Z 28024G35KT 9999 FEW028CB 13/05 Q1008
Loading
Personal Weather Stations






























Interactive Weather Map
Tropical Storm Tracking
New forecast layout! Learn more

10-Day Weather Forecast

Advertisements
Track Severe Weather on mobile